createdAt,value
2023-01-13T00:01:09.951Z,98117.31
2023-01-13T00:03:37.303Z,98113.00
2023-01-13T00:06:04.969Z,98110.88
2023-01-13T00:08:32.203Z,98105.97
2023-01-13T00:10:59.170Z,98114.00
2023-01-13T00:13:28.982Z,98112.66
2023-01-13T00:16:00.937Z,98111.06
2023-01-13T00:18:28.495Z,98110.03
2023-01-13T00:21:07.388Z,98106.28
2023-01-13T00:23:35.599Z,98107.59
2023-01-13T00:26:05.924Z,98099.91
2023-01-13T00:28:33.036Z,98097.72
2023-01-13T00:31:06.335Z,98091.69
2023-01-13T00:33:33.519Z,98090.38
2023-01-13T00:36:01.514Z,98086.78
2023-01-13T00:38:30.314Z,98085.44
2023-01-13T00:41:02.632Z,98089.06
2023-01-13T00:43:30.846Z,98078.19
2023-01-13T00:45:57.583Z,98084.09
2023-01-13T00:48:25.227Z,98085.16
2023-01-13T00:50:57.649Z,98075.13
2023-01-13T00:53:24.586Z,98071.69
2023-01-13T00:56:02.641Z,98075.78
2023-01-13T00:58:32.009Z,98077.94
2023-01-13T01:01:03.374Z,98073.25
2023-01-13T01:03:30.859Z,98077.59
2023-01-13T01:05:58.824Z,98071.81
2023-01-13T01:08:25.783Z,98063.81
2023-01-13T01:11:30.782Z,98060.22
2023-01-13T01:13:59.121Z,98057.94
2023-01-13T01:16:27.540Z,98060.06
2023-01-13T01:18:55.323Z,98055.47
2023-01-13T01:21:23.605Z,98047.09
2023-01-13T01:23:50.793Z,98054.97
2023-01-13T01:26:19.874Z,98057.09
2023-01-13T01:28:46.966Z,98053.47
2023-01-13T01:31:20.185Z,98050.72
2023-01-13T01:33:48.061Z,98053.34
2023-01-13T01:36:16.524Z,98052.34
2023-01-13T01:38:43.507Z,98054.81
2023-01-13T01:41:21.774Z,98050.88
2023-01-13T01:43:59.830Z,98046.31
2023-01-13T01:46:38.044Z,98048.91
2023-01-13T01:49:24.852Z,98041.53
2023-01-13T01:52:03.934Z,98045.47
2023-01-13T01:55:00.124Z,98048.44
2023-01-13T01:57:31.472Z,98040.03
2023-01-13T01:59:59.346Z,98039.91
2023-01-13T02:02:26.213Z,98039.56
2023-01-13T02:04:55.201Z,98038.28
2023-01-13T02:07:24.807Z,98027.44
2023-01-13T02:09:52.188Z,98028.28
2023-01-13T02:12:32.266Z,98022.53
2023-01-13T02:15:11.633Z,98015.00
2023-01-13T02:18:03.907Z,98015.47
2023-01-13T02:20:41.781Z,98006.81
2023-01-13T02:23:55.865Z,98013.69
2023-01-13T02:26:53.759Z,98015.97
2023-01-13T02:29:59.910Z,98013.34
2023-01-13T02:32:31.231Z,98014.81
2023-01-13T02:35:08.995Z,98003.50
2023-01-13T02:37:37.731Z,98012.66
2023-01-13T02:40:46.442Z,98000.09
2023-01-13T02:43:36.908Z,98006.13
2023-01-13T02:46:09.457Z,98001.88
2023-01-13T02:48:37.196Z,97996.63
2023-01-13T02:51:07.487Z,97996.31
2023-01-13T02:54:09.181Z,98006.47
2023-01-13T02:56:40.990Z,97997.13
2023-01-13T02:59:08.704Z,98000.22
2023-01-13T03:01:35.619Z,97995.66
2023-01-13T03:04:35.431Z,97997.94
2023-01-13T03:07:08.660Z,98001.38
2023-01-13T03:09:40.256Z,98000.53
2023-01-13T03:12:34.242Z,98009.25
2023-01-13T03:15:43.718Z,97999.59
2023-01-13T03:18:39.738Z,98003.66
2023-01-13T03:21:11.485Z,98008.09
2023-01-13T03:23:52.959Z,98006.81
2023-01-13T03:26:25.496Z,97996.78
2023-01-13T03:29:02.304Z,97997.78
2023-01-13T03:31:32.391Z,98003.19
2023-01-13T03:34:05.367Z,97999.91
2023-01-13T03:36:32.723Z,97993.03
2023-01-13T03:39:06.766Z,97996.13
2023-01-13T03:41:41.213Z,97984.50
2023-01-13T03:44:23.898Z,97992.03
2023-01-13T03:46:57.738Z,97982.88
2023-01-13T03:49:27.706Z,97976.16
2023-01-13T03:51:59.378Z,97968.41
2023-01-13T03:54:28.668Z,97965.16
2023-01-13T03:56:59.196Z,97965.16
2023-01-13T03:59:38.869Z,97968.44
2023-01-13T04:02:10.219Z,97960.88
2023-01-13T04:04:42.756Z,97961.53
2023-01-13T04:07:18.663Z,97961.72
2023-01-13T04:09:56.732Z,97961.22
2023-01-13T04:12:56.808Z,97959.94
2023-01-13T04:15:27.590Z,97966.31
2023-01-13T04:17:54.765Z,97953.00
2023-01-13T04:20:21.681Z,97939.25
2023-01-13T04:22:48.317Z,97945.31
2023-01-13T04:25:15.210Z,97953.34
2023-01-13T04:27:41.795Z,97968.91
2023-01-13T04:30:09.627Z,97961.22
2023-01-13T04:32:36.541Z,97960.56
2023-01-13T04:35:03.865Z,97952.53
2023-01-13T04:37:30.471Z,97948.09
2023-01-13T04:39:58.517Z,97950.41
2023-01-13T04:42:25.144Z,97959.59
2023-01-13T04:44:51.769Z,97970.06
2023-01-13T04:47:18.525Z,97972.53
2023-01-13T04:49:45.141Z,97990.25
2023-01-13T04:52:11.804Z,98001.38
2023-01-13T04:54:38.416Z,98016.09
2023-01-13T04:57:05.088Z,98016.56
2023-01-13T04:59:33.943Z,98031.59
2023-01-13T05:02:01.743Z,98016.69
2023-01-13T05:04:28.423Z,98028.94
2023-01-13T05:06:55.125Z,98028.72
2023-01-13T05:09:21.683Z,98022.25
2023-01-13T05:12:07.012Z,98042.06
2023-01-13T05:14:52.224Z,98037.66
2023-01-13T05:17:21.529Z,98046.72
2023-01-13T05:19:48.288Z,98037.38
2023-01-13T05:22:34.163Z,98035.97
2023-01-13T05:25:19.831Z,98033.34
2023-01-13T05:27:46.493Z,98037.72
2023-01-13T05:30:13.829Z,98045.72
2023-01-13T05:32:40.532Z,98046.50
2023-01-13T05:35:07.522Z,98060.41
2023-01-13T05:37:34.231Z,98062.31
2023-01-13T05:40:19.519Z,98041.53
2023-01-13T05:43:04.883Z,98035.25
2023-01-13T05:45:31.848Z,98044.66
2023-01-13T05:47:58.733Z,98060.38
2023-01-13T05:50:25.384Z,98067.88
2023-01-13T05:52:52.003Z,98088.00
2023-01-13T05:55:18.605Z,98086.44
2023-01-13T05:57:45.335Z,98090.53
2023-01-13T06:00:12.581Z,98096.22
2023-01-13T06:02:39.252Z,98103.47
2023-01-13T06:05:06.203Z,98108.94
2023-01-13T06:07:32.835Z,98098.25
2023-01-13T06:09:59.521Z,98117.44
2023-01-13T06:12:26.185Z,98118.63
2023-01-13T06:14:52.864Z,98094.88
2023-01-13T06:17:19.503Z,98084.47
2023-01-13T06:19:46.207Z,98089.41
2023-01-13T06:22:33.397Z,98081.25
2023-01-13T06:25:00.359Z,98083.59
2023-01-13T06:27:27.070Z,98074.78
2023-01-13T06:29:53.634Z,98082.69
2023-01-13T06:32:24.652Z,98087.56
2023-01-13T06:34:57.930Z,98096.59
2023-01-13T06:37:26.666Z,98091.38
2023-01-13T06:39:58.720Z,98101.44
2023-01-13T06:42:52.138Z,98100.38
2023-01-13T06:45:19.093Z,98107.06
2023-01-13T06:47:45.679Z,98103.97
2023-01-13T06:50:12.496Z,98080.84
2023-01-13T06:52:39.604Z,98054.25
2023-01-13T06:55:06.644Z,98063.78
2023-01-13T06:57:33.299Z,98065.88
2023-01-13T07:00:00.049Z,98075.94
2023-01-13T07:02:28.423Z,98083.03
2023-01-13T07:04:55.617Z,98079.19
2023-01-13T07:07:22.390Z,98089.72
2023-01-13T07:09:49.148Z,98120.59
2023-01-13T07:12:15.777Z,98127.16
2023-01-13T07:15:01.270Z,98114.81
2023-01-13T07:17:28.167Z,98099.13
2023-01-13T07:19:54.881Z,98104.19
2023-01-13T07:22:21.545Z,98082.59
2023-01-13T07:24:48.243Z,98072.63
2023-01-13T07:27:14.966Z,98072.41
2023-01-13T07:29:41.711Z,98094.50
2023-01-13T07:32:08.460Z,98076.34
2023-01-13T07:34:35.454Z,98079.38
2023-01-13T07:37:02.324Z,98079.94
2023-01-13T07:39:28.948Z,98065.13
2023-01-13T07:42:14.196Z,98087.78
2023-01-13T07:44:40.819Z,98108.28
2023-01-13T07:47:08.773Z,98108.28
2023-01-13T07:49:35.468Z,98116.44
2023-01-13T07:52:02.515Z,98114.34
2023-01-13T07:54:40.013Z,98120.16
2023-01-13T07:57:07.309Z,98117.41
2023-01-13T07:59:34.026Z,98118.66
2023-01-13T08:02:00.927Z,98131.38
2023-01-13T08:04:27.663Z,98124.53
2023-01-13T08:06:54.271Z,98120.50
2023-01-13T08:09:21.571Z,98121.06
2023-01-13T08:12:08.215Z,98105.25
2023-01-13T08:14:34.828Z,98108.00
2023-01-13T08:17:01.713Z,98110.72
2023-01-13T08:19:28.392Z,98094.28
2023-01-13T08:21:55.016Z,98107.88
2023-01-13T08:24:21.613Z,98118.41
2023-01-13T08:26:48.528Z,98127.34
2023-01-13T08:29:15.333Z,98124.78
2023-01-13T08:31:42.024Z,98132.88
2023-01-13T08:34:09.327Z,98134.28
2023-01-13T08:36:36.029Z,98133.69
2023-01-13T08:39:02.779Z,98130.34
2023-01-13T08:41:48.141Z,98132.38
2023-01-13T08:44:14.792Z,98123.03
2023-01-13T08:46:42.156Z,98129.31
2023-01-13T08:49:09.528Z,98125.50
2023-01-13T08:51:36.183Z,98124.53
2023-01-13T08:54:03.412Z,98130.59
2023-01-13T08:56:32.216Z,98126.59
2023-01-13T08:59:01.059Z,98138.59
2023-01-13T09:03:59.469Z,98143.38
2023-01-13T09:06:26.223Z,98138.09
2023-01-13T09:08:52.910Z,98144.13
2023-01-13T09:11:39.998Z,98151.41
2023-01-13T09:14:06.638Z,98159.25
2023-01-13T09:16:33.465Z,98154.59
2023-01-13T09:19:00.189Z,98161.78
2023-01-13T09:21:26.932Z,98167.63
2023-01-13T09:23:53.623Z,98170.16
2023-01-13T09:26:21.379Z,98167.22
2023-01-13T09:28:48.519Z,98163.88
2023-01-13T09:31:15.437Z,98158.03
2023-01-13T09:34:01.007Z,98165.59
2023-01-13T09:36:27.744Z,98169.25
2023-01-13T09:38:54.531Z,98164.41
2023-01-13T09:41:41.928Z,98178.13
2023-01-13T09:44:14.145Z,98189.44
2023-01-13T09:46:44.446Z,98193.28
2023-01-13T09:49:24.064Z,98187.13
2023-01-13T09:52:27.160Z,98197.44
2023-01-13T09:55:16.336Z,98197.59
2023-01-13T09:57:43.408Z,98192.94
2023-01-13T10:00:21.261Z,98192.81
2023-01-13T10:03:25.880Z,98210.53
2023-01-13T10:06:04.759Z,98203.88
2023-01-13T10:08:38.325Z,98204.03
2023-01-13T10:11:36.397Z,98198.06
2023-01-13T10:14:14.491Z,98175.47
2023-01-13T10:17:08.801Z,98180.53
2023-01-13T10:19:45.751Z,98189.22
2023-01-13T10:22:23.659Z,98195.19
2023-01-13T10:25:05.179Z,98191.31
2023-01-13T10:27:35.361Z,98195.63
2023-01-13T10:30:42.284Z,98196.34
2023-01-13T10:33:26.335Z,98186.09
2023-01-13T10:36:14.552Z,98174.75
2023-01-13T10:38:43.956Z,98178.81
2023-01-13T10:41:24.343Z,98178.22
2023-01-13T10:44:08.418Z,98169.66
2023-01-13T10:46:52.192Z,98182.75
2023-01-13T10:49:37.134Z,98191.25
2023-01-13T11:37:45.742Z,98210.78
2023-01-13T11:40:31.981Z,98206.34
2023-01-13T11:43:07.665Z,98203.28
2023-01-13T11:45:41.904Z,98206.69
2023-01-13T11:59:49.716Z,98190.31
2023-01-13T12:02:43.581Z,98200.28
2023-01-13T12:05:30.399Z,98207.06
2023-01-13T12:08:23.798Z,98198.38
2023-01-13T12:11:16.017Z,98214.75
2023-01-13T12:16:49.116Z,98203.63
2023-01-13T12:19:28.158Z,98195.88
2023-01-13T12:22:25.637Z,98200.94
2023-01-13T12:25:00.106Z,98193.78
2023-01-13T12:27:35.991Z,98194.41
2023-01-13T12:30:05.712Z,98192.66
2023-01-13T12:32:38.214Z,98182.66
2023-01-13T12:35:17.661Z,98184.63
2023-01-13T12:38:06.623Z,98188.91
2023-01-13T12:40:48.235Z,98182.22
2023-01-13T12:43:42.601Z,98184.00
2023-01-13T12:46:44.587Z,98189.88
2023-01-13T12:49:22.535Z,98192.84
2023-01-13T12:52:12.916Z,98192.72
2023-01-13T12:55:01.418Z,98192.03
2023-01-13T12:57:29.773Z,98186.97
2023-01-13T13:00:15.714Z,98202.00
2023-01-13T13:02:46.143Z,98205.75
2023-01-13T13:05:15.950Z,98189.69
2023-01-13T13:08:06.701Z,98190.50
2023-01-13T13:10:58.055Z,98205.41
2023-01-13T13:14:01.922Z,98188.88
2023-01-13T13:16:50.809Z,98187.25
2023-01-13T13:19:41.753Z,98182.69
2023-01-13T13:22:23.655Z,98192.22
2023-01-13T13:25:25.283Z,98175.16
2023-01-13T13:28:17.513Z,98176.50
2023-01-13T13:30:53.416Z,98183.56
2023-01-13T13:34:06.360Z,98193.06
2023-01-13T13:36:58.786Z,98199.72
2023-01-13T13:39:53.750Z,98200.84
2023-01-13T13:42:43.486Z,98207.59
2023-01-13T13:45:39.992Z,98209.16
2023-01-13T13:48:31.183Z,98205.47
2023-01-13T13:51:21.644Z,98208.94
2023-01-13T13:53:52.654Z,98202.09
2023-01-13T13:56:24.228Z,98215.53
2023-01-13T13:58:52.648Z,98214.25
2023-01-13T14:01:25.643Z,98221.06
2023-01-13T14:04:22.312Z,98221.84
2023-01-13T14:06:57.447Z,98237.41
2023-01-13T14:09:26.965Z,98253.06
2023-01-13T14:12:15.719Z,98242.06
2023-01-13T14:14:50.422Z,98248.94
2023-01-13T14:17:32.003Z,98247.00
2023-01-13T14:20:28.362Z,98253.06
2023-01-13T14:23:13.461Z,98245.47
2023-01-13T14:26:09.881Z,98255.28
2023-01-13T14:29:03.640Z,98259.69
2023-01-13T14:31:51.773Z,98267.72
2023-01-13T14:34:32.016Z,98254.84
2023-01-13T14:37:06.380Z,98268.84
2023-01-13T14:39:44.286Z,98277.41
2023-01-13T17:47:31.486Z,98523.75
2023-01-13T17:49:58.142Z,98520.47
2023-01-13T17:52:25.336Z,98512.63
2023-01-13T17:54:53.009Z,98519.91
2023-01-13T17:57:19.683Z,98523.63
2023-01-13T17:59:48.162Z,98537.88
2023-01-13T18:02:15.144Z,98540.63
2023-01-13T18:04:42.674Z,98540.41
2023-01-13T18:07:09.524Z,98549.19
2023-01-13T18:09:36.593Z,98557.28
2023-01-13T18:12:03.483Z,98562.38
2023-01-13T18:14:30.386Z,98571.03
2023-01-13T18:16:57.140Z,98577.91
2023-01-13T18:19:42.544Z,98580.25
2023-01-13T18:22:31.890Z,98587.16
2023-01-13T18:25:17.449Z,98597.41
2023-01-13T18:27:44.277Z,98601.78
2023-01-13T18:30:12.689Z,98604.78
2023-01-13T18:32:39.725Z,98606.06
2023-01-13T18:35:10.497Z,98609.06
2023-01-13T18:37:40.199Z,98630.22
2023-01-13T18:40:09.453Z,98617.31
2023-01-13T18:42:53.774Z,98636.56
2023-01-13T18:45:24.440Z,98635.16
2023-01-13T18:47:51.396Z,98635.44
2023-01-13T18:50:18.950Z,98643.72
2023-01-13T18:52:45.699Z,98644.22
2023-01-13T18:55:12.513Z,98644.47
2023-01-13T18:57:40.386Z,98657.44
2023-01-13T19:00:13.000Z,98651.53
2023-01-13T19:02:40.342Z,98664.59
2023-01-13T19:05:07.480Z,98659.50
2023-01-13T19:07:39.776Z,98664.03
2023-01-13T19:10:09.890Z,98668.47
2023-01-13T19:12:40.059Z,98672.03
2023-01-13T19:15:08.053Z,98663.34
2023-01-13T19:17:35.543Z,98669.03
2023-01-13T19:20:02.964Z,98665.22
2023-01-13T19:22:33.082Z,98658.66
2023-01-13T19:25:00.922Z,98670.50
2023-01-13T19:27:28.535Z,98667.25
2023-01-13T19:29:58.456Z,98676.56
2023-01-13T19:32:25.644Z,98678.91
2023-01-13T19:34:55.076Z,98683.69
2023-01-13T19:37:21.889Z,98686.84
2023-01-13T19:39:48.862Z,98696.16
2023-01-13T19:42:34.172Z,98696.69
2023-01-13T19:45:19.625Z,98703.81
2023-01-13T19:47:46.292Z,98703.22
2023-01-13T19:50:13.938Z,98706.97
2023-01-13T19:52:42.087Z,98703.66
2023-01-13T19:55:11.902Z,98710.53
2023-01-13T19:57:40.174Z,98710.88
2023-01-13T20:00:09.558Z,98725.63
2023-01-13T20:02:37.156Z,98731.88
2023-01-13T20:05:06.305Z,98737.19
2023-01-13T20:07:34.005Z,98747.78
2023-01-13T20:10:01.983Z,98753.13
2023-01-13T20:12:29.919Z,98752.56
2023-01-13T20:14:56.945Z,98759.16
2023-01-13T20:17:25.826Z,98756.09
2023-01-13T20:19:53.041Z,98755.75
2023-01-13T20:22:19.933Z,98760.63
2023-01-13T20:24:46.625Z,98767.44
2023-01-13T20:27:13.977Z,98772.94
2023-01-13T20:29:41.064Z,98767.47
2023-01-13T20:32:07.760Z,98761.91
2023-01-13T20:34:34.613Z,98773.72
2023-01-13T20:37:01.293Z,98772.66
2023-01-13T20:39:28.305Z,98781.44
2023-01-13T20:42:14.801Z,98784.63
2023-01-13T20:44:42.070Z,98790.31
2023-01-13T20:47:09.011Z,98789.50
2023-01-13T20:49:38.871Z,98801.31
2023-01-13T20:52:09.732Z,98793.31
2023-01-13T20:54:37.721Z,98806.81
2023-01-13T20:57:08.151Z,98807.53
2023-01-13T20:59:34.831Z,98804.81
2023-01-13T21:02:01.779Z,98799.59
2023-01-13T21:04:29.172Z,98794.66
2023-01-13T21:06:56.486Z,98810.19
2023-01-13T21:09:24.089Z,98810.41
2023-01-13T21:12:09.979Z,98818.41
2023-01-13T21:14:55.359Z,98818.97
2023-01-13T21:17:41.267Z,98809.22
2023-01-13T21:20:10.585Z,98815.63
2023-01-13T21:22:37.436Z,98821.56
2023-01-13T21:25:04.927Z,98822.41
2023-01-13T21:27:32.008Z,98819.41
2023-01-13T21:29:58.809Z,98819.91
2023-01-13T21:32:25.520Z,98823.56
2023-01-13T21:34:52.620Z,98828.69
2023-01-13T21:37:19.416Z,98820.31
2023-01-13T21:39:46.161Z,98816.75
2023-01-13T21:42:35.180Z,98819.75
2023-01-13T21:45:21.128Z,98822.44
2023-01-13T21:47:50.978Z,98826.13
2023-01-13T21:50:22.719Z,98832.41
2023-01-13T21:52:52.424Z,98834.34
2023-01-13T21:55:21.285Z,98841.22
2023-01-13T21:57:49.302Z,98834.06
2023-01-13T22:00:17.928Z,98848.31
2023-01-13T22:02:44.708Z,98840.72
2023-01-13T22:05:13.976Z,98841.66
2023-01-13T22:07:40.932Z,98853.25
2023-01-13T22:10:14.403Z,98847.84
2023-01-13T22:12:41.318Z,98852.91
2023-01-13T22:15:09.790Z,98861.94
2023-01-13T22:17:36.682Z,98862.88
2023-01-13T22:20:04.124Z,98867.47
2023-01-13T22:22:36.724Z,98871.03
2023-01-13T22:25:09.110Z,98873.91
2023-01-13T22:27:40.800Z,98866.31
2023-01-13T22:30:11.718Z,98871.31
2023-01-13T22:32:38.893Z,98869.97
2023-01-13T22:35:08.088Z,98872.97
2023-01-13T22:37:34.993Z,98878.91
2023-01-13T22:40:02.916Z,98877.34
2023-01-13T22:42:29.887Z,98883.78
2023-01-13T22:44:56.597Z,98875.84
2023-01-13T22:47:23.695Z,98885.81
2023-01-13T22:49:50.505Z,98881.06
2023-01-13T22:52:17.779Z,98878.94
2023-01-13T22:54:44.554Z,98883.19
2023-01-13T22:57:12.598Z,98879.31
2023-01-13T22:59:39.364Z,98882.03
2023-01-13T23:02:06.106Z,98891.31
2023-01-13T23:04:32.933Z,98894.13
2023-01-13T23:07:00.410Z,98898.28
2023-01-13T23:09:30.992Z,98897.09
2023-01-13T23:11:59.035Z,98891.63
2023-01-13T23:14:25.994Z,98893.41
2023-01-13T23:16:52.967Z,98895.75
2023-01-13T23:19:19.786Z,98890.06
2023-01-13T23:21:46.564Z,98898.88
2023-01-13T23:24:13.708Z,98891.75
2023-01-13T23:26:40.619Z,98888.19
2023-01-13T23:29:09.521Z,98896.84
2023-01-13T23:31:36.154Z,98893.16
2023-01-13T23:34:04.138Z,98889.13
2023-01-13T23:36:31.264Z,98899.22
2023-01-13T23:38:59.740Z,98900.50
2023-01-13T23:41:28.053Z,98901.22
2023-01-13T23:43:59.884Z,98886.41
2023-01-13T23:46:28.387Z,98896.22
2023-01-13T23:48:55.749Z,98902.28
2023-01-13T23:51:26.185Z,98899.06
2023-01-13T23:53:53.202Z,98889.34
2023-01-13T23:56:24.898Z,98897.66
2023-01-13T23:58:51.732Z,98903.59
